Other Surface Observations
Issued by NWS Missoula, MT

Home | Current Version | Previous Version | Text Only | Print | Product List | Glossary On
Versions: 1 2 3 4 5 6 7 8 9 10 11 12 13 14 15 16 17 18 19 20 21 22 23 24 25 26 27 28 29 30 31 32 33 34 35 36 37 38 39 40 41 42 43 44 45 46 47 48 49 50
000
SXUS55 KMSO 311204
OSOMSO
MONTANA AWOS SUMMARY
NATIONAL WEATHER SERVICE MISSOULA MT
603 AM MDT TUE MAY 31 2016

Montana AWOS Reports

LAUREL      |K6S8 311155Z AUTO 00000KT 40SM 06/00 A3010 RMK AO1 T00610000
EKALAKA     |K97M 311155Z AUTO 25018G28KT 7SM 06/04 A2990 RMK AO1 T00560039
ROUNDUP     |KRPX 311155Z AUTO 28023G30KT 40SM 09/01 A2999 RMK AO1 T00890006
PLAINS      |KS34 311155Z AUTO 00000KT 40SM 02/M02 A3020 RMK AO1 T00171016
SCOBEY      |K9S2 311155Z AUTO 35011KT 5SM HZ 11/06 A2984 RMK AO1 T01060061
TWIN BRIDGES|K7S1 311155Z AUTO 36009G14KT 40SM 06/00 A3018 RMK AO1 T00610000




USA.gov is the U.S. government's official web portal to all federal, state and local government web resources and services.